Time;durP1;ratioP1;P1;durP2;ratioP2;P2;SDS_P1;SDS_P2;PMS_P1;PMS_P2;Temp;Humidity;BMP_temperature;BMP_pressure;BME280_temperature;BME280_humidity;BME280_pressure;Samples;Min_cycle;Max_cycle;Signal;HPM_P1;HPM_P2
2023/12/21 00:00:59;;;;;;;3.58;0.95;;;;;;;9.39;92.07;100165.63;7392284;19;20018;-62
2023/12/21 00:03:27;;;;;;;5.53;0.80;;;;;;;9.42;92.00;100172.47;7392109;19;20621;-62
2023/12/21 00:05:55;;;;;;;6.32;1.25;;;;;;;9.49;91.81;100178.97;7391299;19;20210;-62
2023/12/21 00:08:23;;;;;;;3.83;1.05;;;;;;;9.48;91.67;100175.47;7391488;19;20014;-62
2023/12/21 00:10:52;;;;;;;2.33;0.77;;;;;;;9.47;91.98;100175.59;7390583;19;20022;-62
2023/12/21 00:13:20;;;;;;;6.45;1.10;;;;;;;9.46;92.05;100165.97;7392428;19;20019;-62
2023/12/21 00:15:48;;;;;;;5.70;1.00;;;;;;;9.47;91.90;100152.66;7390760;19;20010;-62
2023/12/21 00:18:16;;;;;;;3.78;1.00;;;;;;;9.52;91.93;100149.66;7391238;19;20018;-62
2023/12/21 00:20:44;;;;;;;3.47;1.00;;;;;;;9.51;91.85;100137.41;7392015;19;20530;-62
2023/12/21 00:23:12;;;;;;;3.97;1.00;;;;;;;9.50;92.34;100128.63;7390489;19;20018;-62
2023/12/21 00:25:40;;;;;;;3.40;1.05;;;;;;;9.46;92.08;100118.41;7390752;19;20026;-62
2023/12/21 00:28:08;;;;;;;3.88;0.93;;;;;;;9.52;92.12;100124.06;7389856;19;20098;-62
2023/12/21 00:30:35;;;;;;;5.85;1.00;;;;;;;9.51;92.16;100132.13;7391234;19;20042;-63
2023/12/21 00:33:04;;;;;;;5.38;1.08;;;;;;;9.55;92.00;100132.72;7391608;19;20025;-62
2023/12/21 00:35:32;;;;;;;3.75;1.10;;;;;;;9.59;91.71;100126.22;7393356;19;20014;-63
2023/12/21 00:38:00;;;;;;;3.65;0.90;;;;;;;9.54;91.90;100131.88;7398845;19;20022;-63
2023/12/21 00:40:29;;;;;;;4.03;1.17;;;;;;;9.56;92.10;100123.81;7399196;19;20354;-62
2023/12/21 00:42:57;;;;;;;3.67;0.80;;;;;;;9.50;92.24;100115.41;7398630;19;20015;-62
2023/12/21 00:45:25;;;;;;;5.68;1.20;;;;;;;9.55;92.12;100111.56;7397546;19;20051;-62
2023/12/21 00:47:54;;;;;;;5.63;1.33;;;;;;;9.53;92.23;100116.97;7398230;19;20090;-62
2023/12/21 00:50:22;;;;;;;4.78;1.20;;;;;;;9.56;92.25;100103.50;7395032;19;20018;-62
2023/12/21 00:52:50;;;;;;;5.15;1.15;;;;;;;9.58;92.06;100092.78;7397957;19;20041;-62
2023/12/21 00:55:18;;;;;;;4.40;1.10;;;;;;;9.65;91.81;100096.63;7398300;19;20010;-62
2023/12/21 00:57:45;;;;;;;4.00;1.10;;;;;;;9.66;91.86;100093.03;7399517;19;20031;-60
2023/12/21 01:00:14;;;;;;;4.72;0.90;;;;;;;9.67;91.99;100094.72;7397209;19;20035;-62
2023/12/21 01:02:42;;;;;;;4.50;0.90;;;;;;;9.61;92.26;100111.06;7399196;19;20018;-62
2023/12/21 01:05:10;;;;;;;4.25;1.13;;;;;;;9.57;92.28;100099.88;7394635;19;20082;-62
2023/12/21 01:07:38;;;;;;;4.65;0.93;;;;;;;9.58;92.42;100093.66;7396070;19;20038;-62
2023/12/21 01:10:06;;;;;;;3.78;0.95;;;;;;;9.62;92.29;100086.34;7394820;19;20022;-62
2023/12/21 01:12:34;;;;;;;3.72;0.80;;;;;;;9.61;92.18;100079.34;7396066;19;20483;-61
2023/12/21 01:15:03;;;;;;;4.35;0.98;;;;;;;9.60;92.00;100070.56;7397591;19;20018;-61
2023/12/21 01:17:31;;;;;;;4.28;1.00;;;;;;;9.64;92.05;100068.53;7397725;19;20019;-61
2023/12/21 01:19:58;;;;;;;3.63;1.05;;;;;;;9.66;91.73;100069.25;7395172;19;20081;-62
2023/12/21 01:22:26;;;;;;;6.45;1.38;;;;;;;9.72;91.58;100061.63;7397927;19;20508;-62
2023/12/21 01:24:54;;;;;;;5.30;1.02;;;;;;;9.68;91.72;100051.44;7397793;19;20035;-62
2023/12/21 01:27:22;;;;;;;7.93;1.30;;;;;;;9.67;92.03;100070.94;7394829;19;20035;-62
2023/12/21 01:29:59;;;;;;;5.25;1.20;;;;;;;9.65;91.75;100049.03;7393485;19;20474;-61
2023/12/21 01:32:28;;;;;;;8.00;1.52;;;;;;;9.63;91.69;100054.47;7396121;19;20038;-61
2023/12/21 01:34:56;;;;;;;7.13;1.90;;;;;;;9.59;91.86;100042.47;7397042;19;20526;-62
2023/12/21 01:37:24;;;;;;;4.53;1.33;;;;;;;9.66;91.58;100034.88;7397365;19;20028;-61
2023/12/21 01:39:52;;;;;;;5.78;1.40;;;;;;;9.68;91.58;100022.38;7394615;19;20126;-62
2023/12/21 01:42:20;;;;;;;7.18;1.77;;;;;;;9.65;91.52;100010.22;7395509;19;20038;-61
2023/12/21 01:44:47;;;;;;;10.65;1.80;;;;;;;9.64;91.62;100018.28;7397193;19;20383;-61
2023/12/21 01:47:16;;;;;;;8.90;2.03;;;;;;;9.67;91.76;100015.41;7393022;19;20019;-61
2023/12/21 01:49:44;;;;;;;13.30;1.90;;;;;;;9.71;91.37;100000.97;7394237;19;20074;-62
2023/12/21 01:52:12;;;;;;;10.73;2.20;;;;;;;9.74;91.26;100000.72;7396464;19;20344;-62
2023/12/21 01:54:41;;;;;;;7.20;1.55;;;;;;;9.70;91.38;100002.78;7395424;19;20011;-62
2023/12/21 01:57:09;;;;;;;11.00;1.75;;;;;;;9.75;91.36;100012.97;7396638;19;20044;-62
2023/12/21 01:59:38;;;;;;;7.90;1.60;;;;;;;9.77;91.12;100011.06;7394198;19;20031;-61
2023/12/21 02:02:06;;;;;;;7.00;1.60;;;;;;;9.72;91.10;99992.91;7396354;19;20652;-61
2023/12/21 02:04:34;;;;;;;6.88;1.30;;;;;;;9.76;91.31;99990.84;7396535;19;20022;-61
2023/12/21 02:07:03;;;;;;;6.65;1.52;;;;;;;9.75;91.22;99987.38;7394598;19;20022;-61
2023/12/21 02:09:31;;;;;;;6.13;1.50;;;;;;;9.76;91.43;99990.84;7392377;19;20021;-61
2023/12/21 02:11:59;;;;;;;8.15;1.55;;;;;;;9.68;91.60;99993.28;7395733;19;20355;-61
2023/12/21 02:14:27;;;;;;;6.13;1.60;;;;;;;9.67;91.69;99976.59;7395706;19;20015;-62
2023/12/21 02:16:59;;;;;;;8.93;1.88;;;;;;;9.71;91.56;99974.53;7395272;19;20483;-62
2023/12/21 02:19:28;;;;;;;7.28;1.50;;;;;;;9.81;91.16;99969.34;7392169;19;20015;-62
2023/12/21 02:21:59;;;;;;;8.40;1.75;;;;;;;9.76;90.81;99951.19;7395458;19;20415;-61
2023/12/21 02:24:30;;;;;;;6.32;1.90;;;;;;;9.75;90.77;99946.88;7393920;19;20021;-62
2023/12/21 02:26:59;;;;;;;7.97;1.67;;;;;;;9.72;91.11;99953.25;7394198;19;20443;-61
2023/12/21 02:29:27;;;;;;;7.43;1.80;;;;;;;9.73;91.12;99949.66;7393846;19;20015;-62
2023/12/21 02:31:55;;;;;;;10.90;1.70;;;;;;;9.76;90.58;99948.53;7393945;19;20087;-61
2023/12/21 02:34:23;;;;;;;7.65;2.17;;;;;;;9.82;90.51;99955.13;7395662;19;20019;-61
2023/12/21 02:36:51;;;;;;;9.65;1.90;;;;;;;9.74;90.51;99939.91;7394821;19;20018;-61
2023/12/21 02:39:19;;;;;;;9.90;1.92;;;;;;;9.75;90.77;99945.06;7393401;19;20361;-61
2023/12/21 02:41:47;;;;;;;9.38;2.30;;;;;;;9.77;90.39;99929.09;7395312;19;20023;-61
2023/12/21 02:44:15;;;;;;;10.85;2.05;;;;;;;9.81;90.22;99940.25;7394651;19;20638;-61
2023/12/21 02:46:43;;;;;;;8.50;2.17;;;;;;;9.77;90.51;99937.84;7393824;19;20029;-61
2023/12/21 02:49:10;;;;;;;7.30;1.75;;;;;;;9.75;90.90;99938.94;7393035;19;20077;-61
2023/12/21 02:51:38;;;;;;;5.40;1.63;;;;;;;9.77;90.91;99919.34;7394772;19;20514;-60
2023/12/21 02:54:06;;;;;;;6.32;1.73;;;;;;;9.74;91.09;99911.66;7394902;19;20014;-61
2023/12/21 02:56:34;;;;;;;7.40;1.75;;;;;;;9.73;91.21;99917.94;7394332;19;20019;-61
2023/12/21 02:59:02;;;;;;;6.72;1.58;;;;;;;9.75;91.24;99902.75;7390129;19;20023;-61
2023/12/21 03:01:30;;;;;;;5.18;1.52;;;;;;;9.80;90.83;99904.19;7394957;19;20014;-61
2023/12/21 03:03:59;;;;;;;5.57;1.48;;;;;;;9.83;90.81;99888.06;7392457;19;20419;-61
2023/12/21 03:06:28;;;;;;;6.35;1.48;;;;;;;9.84;90.38;99884.44;7390078;19;20046;-61
2023/12/21 03:08:56;;;;;;;7.28;1.67;;;;;;;9.80;90.67;99865.34;7392045;19;20360;-61
2023/12/21 03:11:25;;;;;;;6.57;1.85;;;;;;;9.81;90.41;99858.28;7392818;19;20333;-62
2023/12/21 03:13:52;;;;;;;7.93;1.63;;;;;;;9.81;90.35;99861.75;7392983;19;20020;-62
2023/12/21 03:16:20;;;;;;;7.55;1.50;;;;;;;9.86;90.21;99856.91;7393301;19;20348;-61
2023/12/21 03:18:48;;;;;;;7.35;1.83;;;;;;;9.84;90.04;99848.25;7391924;19;20384;-62
2023/12/21 03:21:16;;;;;;;8.32;2.03;;;;;;;9.86;89.68;99845.50;7393506;19;20035;-62
2023/12/21 03:23:44;;;;;;;7.03;1.60;;;;;;;9.79;89.56;99817.91;7393624;19;20043;-62
2023/12/21 03:26:13;;;;;;;5.57;1.70;;;;;;;9.88;89.72;99835.59;7393024;19;20031;-62
2023/12/21 03:28:44;;;;;;;7.35;1.88;;;;;;;9.85;89.59;99827.97;7392165;19;20030;-62
2023/12/21 03:31:16;;;;;;;8.38;2.05;;;;;;;9.83;89.75;99827.25;7392847;19;20088;-62
2023/12/21 03:33:43;;;;;;;7.82;1.85;;;;;;;9.85;89.90;99826.16;7392862;19;20033;-62
2023/12/21 03:36:12;;;;;;;7.43;2.50;;;;;;;9.87;89.59;99815.44;7393016;19;20082;-62
2023/12/21 03:38:40;;;;;;;9.32;2.80;;;;;;;9.89;89.79;99809.06;7391769;19;20022;-61
2023/12/21 03:41:09;;;;;;;9.68;3.45;;;;;;;9.89;89.58;99806.41;7392871;19;20038;-62
2023/12/21 03:43:36;;;;;;;6.90;2.90;;;;;;;9.88;89.32;99804.75;7392440;19;20018;-62
2023/12/21 03:46:08;;;;;;;9.52;2.53;;;;;;;9.93;89.44;99791.94;7393024;19;20015;-61
2023/12/21 03:48:36;;;;;;;7.38;2.25;;;;;;;9.98;89.30;99791.53;7391956;19;20022;-61
2023/12/21 03:51:04;;;;;;;8.02;1.95;;;;;;;9.96;88.74;99772.34;7392340;19;20022;-62
2023/12/21 03:53:32;;;;;;;9.40;2.00;;;;;;;9.95;88.96;99755.59;7392420;19;20090;-62
2023/12/21 03:56:00;;;;;;;7.35;1.88;;;;;;;9.96;88.99;99754.66;7390517;19;20026;-62
2023/12/21 03:58:28;;;;;;;6.93;1.98;;;;;;;9.91;89.43;99748.91;7391519;19;20060;-62
2023/12/21 04:00:56;;;;;;;6.50;1.75;;;;;;;9.91;89.31;99740.16;7391920;19;20483;-62
2023/12/21 04:03:24;;;;;;;9.48;1.92;;;;;;;9.89;89.96;99750.03;7392151;19;20019;-61
2023/12/21 04:05:53;;;;;;;5.18;1.80;;;;;;;9.90;89.98;99751.72;7391091;19;20028;-62
2023/12/21 04:08:21;;;;;;;7.60;2.10;;;;;;;9.85;90.02;99757.41;7389906;19;20483;-62
2023/12/21 04:10:49;;;;;;;6.90;2.00;;;;;;;9.87;90.14;99741.38;7390850;19;20025;-62
2023/12/21 04:13:17;;;;;;;6.93;1.90;;;;;;;9.84;90.19;99747.78;7391986;19;20021;-62
2023/12/21 04:15:45;;;;;;;6.40;2.00;;;;;;;9.90;89.96;99730.56;7390274;19;20102;-62
2023/12/21 04:18:13;;;;;;;9.23;2.15;;;;;;;9.94;89.84;99731.97;7389069;19;20018;-62
2023/12/21 04:20:44;;;;;;;6.10;1.77;;;;;;;9.92;89.88;99731.25;7390127;19;20048;-62
2023/12/21 04:23:12;;;;;;;6.13;1.77;;;;;;;9.91;89.84;99733.06;7391365;19;20018;-62
2023/12/21 04:25:40;;;;;;;5.10;1.80;;;;;;;9.95;89.90;99721.22;7389841;19;20019;-62
2023/12/21 04:28:08;;;;;;;6.05;1.60;;;;;;;9.87;89.71;99707.03;7388976;19;20086;-62
2023/12/21 04:30:35;;;;;;;5.53;1.70;;;;;;;9.91;89.65;99703.13;7391548;19;20047;-62
2023/12/21 04:33:04;;;;;;;4.60;1.70;;;;;;;9.83;89.97;99681.81;7391156;19;20499;-62
2023/12/21 04:35:32;;;;;;;6.55;1.90;;;;;;;9.91;90.32;99680.16;7390891;19;20123;-62
2023/12/21 04:37:59;;;;;;;4.65;1.70;;;;;;;9.89;90.07;99671.53;7391818;19;20022;-62
2023/12/21 04:40:28;;;;;;;5.78;1.77;;;;;;;9.87;90.50;99667.34;7389116;19;20082;-61
2023/12/21 04:42:56;;;;;;;5.95;1.58;;;;;;;9.83;90.79;99653.56;7391010;19;20034;-61
2023/12/21 04:45:24;;;;;;;4.25;1.42;;;;;;;9.86;90.99;99655.13;7393456;19;20015;-62
2023/12/21 04:47:52;;;;;;;4.60;1.67;;;;;;;9.87;90.66;99648.84;7389793;19;20086;-63
2023/12/21 04:50:20;;;;;;;5.93;1.70;;;;;;;9.88;90.94;99637.28;7387637;19;20018;-62
2023/12/21 04:52:49;;;;;;;4.18;1.67;;;;;;;9.90;90.75;99625.59;7389468;19;20019;-61
2023/12/21 04:55:18;;;;;;;5.40;1.70;;;;;;;9.94;90.81;99620.88;7391080;19;20022;-62
2023/12/21 04:57:45;;;;;;;4.95;1.50;;;;;;;9.88;90.88;99616.13;7390905;19;20014;-61
2023/12/21 05:00:14;;;;;;;3.45;1.60;;;;;;;9.83;91.52;99619.19;7388389;19;20025;-60
2023/12/21 05:02:42;;;;;;;4.28;1.55;;;;;;;9.86;91.34;99624.22;7390576;19;20018;-61
2023/12/21 05:05:09;;;;;;;2.70;1.20;;;;;;;9.87;91.15;99625.88;7390426;19;20027;-61
2023/12/21 05:07:37;;;;;;;3.60;1.35;;;;;;;9.84;91.38;99610.28;7389345;19;20015;-61
2023/12/21 05:10:06;;;;;;;3.92;1.30;;;;;;;9.88;91.28;99594.97;7398730;19;20015;-61
2023/12/21 05:12:35;;;;;;;4.10;1.50;;;;;;;9.85;91.57;99585.53;7404719;19;20031;-61
2023/12/21 05:15:03;;;;;;;4.63;1.50;;;;;;;9.77;91.56;99572.16;7403668;19;20021;-62
2023/12/21 05:17:31;;;;;;;2.88;1.45;;;;;;;9.80;91.71;99573.69;7397826;19;20014;-62
2023/12/21 05:19:59;;;;;;;3.15;1.50;;;;;;;9.81;91.70;99557.69;7395429;19;20478;-62
2023/12/21 05:22:27;;;;;;;3.70;1.40;;;;;;;9.81;91.77;99547.13;7394626;19;20069;-62
2023/12/21 05:24:55;;;;;;;3.13;1.60;;;;;;;9.87;91.57;99533.34;7397350;19;20018;-62
2023/12/21 05:27:23;;;;;;;2.38;1.10;;;;;;;9.94;91.25;99525.69;7397611;19;20042;-62
2023/12/21 05:29:51;;;;;;;2.92;1.20;;;;;;;9.88;91.08;99531.50;7394422;19;20380;-62
2023/12/21 05:32:18;;;;;;;2.50;1.17;;;;;;;9.81;91.42;99527.78;7397495;19;20018;-59
2023/12/21 05:34:46;;;;;;;3.25;1.08;;;;;;;9.76;91.43;99526.34;7397965;19;20379;-61
2023/12/21 05:37:14;;;;;;;1.73;1.10;;;;;;;9.77;91.69;99520.13;7396056;19;20432;-61
2023/12/21 05:39:47;;;;;;;2.22;1.10;;;;;;;9.80;91.75;99511.06;7393057;19;20471;-60
2023/12/21 05:42:15;;;;;;;2.85;1.20;;;;;;;9.85;91.53;99500.09;7396870;19;20046;-58
2023/12/21 05:44:43;;;;;;;1.63;1.02;;;;;;;9.86;91.47;99478.78;7397305;19;20033;-59
2023/12/21 05:47:11;;;;;;;2.30;1.23;;;;;;;9.84;91.35;99478.06;7396052;19;20014;-60
2023/12/21 05:49:39;;;;;;;2.28;0.90;;;;;;;9.80;91.65;99465.28;7394087;19;20018;-57
2023/12/21 05:52:07;;;;;;;2.30;0.90;;;;;;;9.74;91.78;99458.75;7396751;19;20423;-60
2023/12/21 05:54:35;;;;;;;2.50;0.90;;;;;;;9.79;91.86;99447.75;7394934;19;20038;-60
2023/12/21 05:57:03;;;;;;;1.65;1.00;;;;;;;9.78;91.75;99431.06;7396095;19;20077;-61
2023/12/21 05:59:31;;;;;;;1.30;0.90;;;;;;;9.86;91.37;99433.00;7394062;19;20025;-61
2023/12/21 06:01:59;;;;;;;1.52;0.90;;;;;;;9.82;91.32;99419.22;7393841;19;20018;-62
2023/12/21 06:04:27;;;;;;;1.67;1.02;;;;;;;9.85;91.30;99403.09;7396720;19;20085;-61
2023/12/21 06:06:56;;;;;;;1.40;1.10;;;;;;;9.85;91.45;99389.88;7396355;19;20339;-58
2023/12/21 06:09:24;;;;;;;1.70;0.90;;;;;;;9.80;91.71;99386.78;7392833;19;20416;-61
2023/12/21 06:11:52;;;;;;;2.80;1.05;;;;;;;9.79;91.63;99371.91;7401279;19;20018;-60
2023/12/21 06:14:20;;;;;;;1.42;0.85;;;;;;;9.83;91.32;99367.19;7396083;19;20377;-56
2023/12/21 06:16:48;;;;;;;1.42;0.70;;;;;;;9.87;91.17;99350.88;7396047;19;20296;-59
2023/12/21 06:19:16;;;;;;;2.22;0.90;;;;;;;9.77;91.41;99343.00;7393631;19;20471;-58
2023/12/21 06:21:44;;;;;;;2.88;0.80;;;;;;;9.78;91.49;99327.97;7395487;19;20343;-59
2023/12/21 06:24:12;;;;;;;0.75;0.70;;;;;;;9.76;91.62;99314.03;7395418;19;20022;-61
2023/12/21 06:26:40;;;;;;;3.47;0.90;;;;;;;9.86;91.81;99314.03;7396206;19;20011;-60
2023/12/21 06:29:09;;;;;;;1.55;0.80;;;;;;;9.88;91.00;99309.41;7393100;19;20018;-59
2023/12/21 06:31:37;;;;;;;0.82;0.70;;;;;;;9.86;91.08;99306.91;7392386;19;20062;-61
2023/12/21 06:34:05;;;;;;;1.35;0.90;;;;;;;9.79;91.14;99289.97;7395019;19;20049;-60
2023/12/21 06:36:33;;;;;;;2.08;0.90;;;;;;;9.77;91.38;99279.53;7395465;19;20098;-59
2023/12/21 06:39:01;;;;;;;1.92;0.80;;;;;;;9.82;91.17;99278.28;7393792;19;20022;-58
2023/12/21 06:41:29;;;;;;;0.98;0.82;;;;;;;9.82;91.72;99263.25;7395513;19;20426;-59
2023/12/21 06:43:57;;;;;;;1.88;0.98;;;;;;;9.83;91.36;99250.84;7394837;19;20347;-59
2023/12/21 06:46:25;;;;;;;0.88;0.73;;;;;;;9.83;91.36;99235.00;7395319;19;20020;-60
2023/12/21 06:48:53;;;;;;;2.35;0.80;;;;;;;9.77;91.35;99242.53;7391983;19;20535;-59
2023/12/21 06:51:21;;;;;;;1.58;0.90;;;;;;;9.75;91.75;99212.75;7395128;19;20027;-60
2023/12/21 06:53:49;;;;;;;0.88;0.80;;;;;;;9.82;91.18;99197.16;7394762;19;20019;-59
2023/12/21 06:56:17;;;;;;;1.00;0.70;;;;;;;9.84;91.14;99187.25;7393256;19;20038;-60
2023/12/21 06:59:02;;;;;;;1.38;0.73;;;;;;;9.76;91.24;99180.03;7393039;19;20018;-60
2023/12/21 07:01:30;;;;;;;0.57;0.57;;;;;;;9.82;91.21;99181.28;7393010;19;20510;-60
2023/12/21 07:03:58;;;;;;;1.33;0.52;;;;;;;9.82;91.29;99168.06;7393545;19;20022;-58
2023/12/21 07:06:26;;;;;;;1.23;0.57;;;;;;;9.84;90.83;99155.53;7392069;19;20077;-61
2023/12/21 07:08:55;;;;;;;0.40;0.40;;;;;;;9.84;90.87;99147.59;7391792;19;20018;-62
2023/12/21 07:11:23;;;;;;;0.50;0.40;;;;;;;9.87;90.96;99147.31;7394449;19;20067;-62
2023/12/21 07:13:51;;;;;;;1.15;0.40;;;;;;;9.84;90.91;99150.22;7393633;19;20018;-62
2023/12/21 07:16:18;;;;;;;1.35;0.40;;;;;;;9.92;90.80;99144.19;7393982;19;20026;-61
2023/12/21 07:18:46;;;;;;;1.17;0.50;;;;;;;9.89;90.63;99132.13;7391350;19;20398;-61
2023/12/21 07:21:14;;;;;;;1.50;0.43;;;;;;;9.96;90.37;99141.13;7393762;19;20348;-61
2023/12/21 07:23:42;;;;;;;1.58;0.50;;;;;;;9.90;90.48;99123.22;7393897;19;20023;-61
2023/12/21 07:26:10;;;;;;;2.78;0.70;;;;;;;9.95;90.52;99126.22;7392751;19;20022;-61
2023/12/21 07:28:40;;;;;;;1.02;0.40;;;;;;;9.98;90.28;99131.22;7391777;19;20038;-62
2023/12/21 07:31:10;;;;;;;0.50;0.47;;;;;;;9.96;90.40;99121.81;7393514;19;20028;-61
2023/12/21 07:33:38;;;;;;;1.55;0.52;;;;;;;9.98;90.59;99127.75;7393749;19;20018;-62
2023/12/21 07:36:07;;;;;;;2.80;0.50;;;;;;;9.90;90.66;99110.00;7392173;19;20019;-63
2023/12/21 07:38:36;;;;;;;1.55;0.50;;;;;;;9.88;90.63;99096.09;7392681;19;20026;-61
2023/12/21 07:41:04;;;;;;;1.58;0.50;;;;;;;9.86;91.12;99116.56;7393896;19;20014;-62
2023/12/21 07:43:32;;;;;;;1.92;0.60;;;;;;;9.85;91.09;99125.47;7393131;19;20346;-60
2023/12/21 07:46:00;;;;;;;0.60;0.50;;;;;;;9.89;91.05;99118.91;7392426;19;20040;-61
2023/12/21 07:48:29;;;;;;;0.77;0.40;;;;;;;9.91;90.79;99124.88;7391456;19;20026;-60
2023/12/21 07:50:56;;;;;;;1.08;0.50;;;;;;;9.94;90.52;99108.72;7392752;19;20035;-61
2023/12/21 07:53:24;;;;;;;1.55;0.60;;;;;;;9.97;90.35;99112.88;7392721;19;20018;-61
2023/12/21 07:55:52;;;;;;;2.08;0.50;;;;;;;9.95;90.22;99099.78;7392268;19;20014;-61
2023/12/21 07:58:20;;;;;;;1.48;0.50;;;;;;;9.96;90.35;99109.41;7391472;19;20692;-61
2023/12/21 08:00:48;;;;;;;2.03;0.50;;;;;;;9.99;90.17;99093.22;7393174;19;20033;-61
2023/12/21 08:03:16;;;;;;;1.08;0.70;;;;;;;10.03;89.92;99085.81;7392710;19;20755;-61
2023/12/21 08:05:44;;;;;;;2.25;0.60;;;;;;;10.02;89.96;99073.59;7391026;19;20018;-61
2023/12/21 08:08:12;;;;;;;4.20;0.65;;;;;;;10.10;89.48;99078.13;7391505;19;20023;-61
2023/12/21 08:10:40;;;;;;;1.83;0.70;;;;;;;10.11;89.31;99093.00;7392446;19;20038;-62
2023/12/21 08:13:09;;;;;;;2.97;0.50;;;;;;;10.06;89.17;99076.75;7392341;19;20014;-62
2023/12/21 08:15:37;;;;;;;1.75;0.50;;;;;;;10.05;89.15;99069.81;7392016;19;20015;-61
2023/12/21 08:18:05;;;;;;;2.05;0.50;;;;;;;10.06;89.12;99056.44;7390660;19;20015;-61
2023/12/21 08:20:36;;;;;;;2.58;0.68;;;;;;;10.09;89.05;99050.00;7391488;19;20490;-61
2023/12/21 08:23:03;;;;;;;0.93;0.60;;;;;;;10.08;89.43;99040.44;7391708;19;20014;-61
2023/12/21 08:25:31;;;;;;;2.90;0.70;;;;;;;10.07;89.29;99028.16;7391661;19;20019;-61
2023/12/21 08:28:00;;;;;;;3.25;0.77;;;;;;;10.05;89.20;99038.06;7389652;19;20042;-62
2023/12/21 08:30:28;;;;;;;3.80;0.90;;;;;;;10.04;89.82;99036.44;7389635;19;20015;-62
2023/12/21 08:32:56;;;;;;;2.75;0.70;;;;;;;10.06;89.55;99013.28;7390856;19;20018;-62
2023/12/21 08:35:24;;;;;;;2.42;0.65;;;;;;;10.09;88.96;99015.63;7391704;19;20014;-62
2023/12/21 08:37:54;;;;;;;2.83;0.70;;;;;;;10.11;89.22;99011.00;7391638;19;20022;-62
2023/12/21 08:40:22;;;;;;;3.28;0.70;;;;;;;10.18;88.75;99010.22;7387753;19;20038;-62
2023/12/21 08:42:50;;;;;;;3.05;0.63;;;;;;;10.14;89.06;99000.94;7389706;19;20090;-63
2023/12/21 08:45:18;;;;;;;5.00;0.93;;;;;;;10.13;88.97;98988.72;7391422;19;20491;-62
2023/12/21 08:47:46;;;;;;;1.75;0.70;;;;;;;10.13;88.96;98975.50;7386098;19;20022;-62
2023/12/21 08:50:14;;;;;;;1.55;0.60;;;;;;;10.16;88.79;98979.66;7387627;19;20047;-62
2023/12/21 08:52:42;;;;;;;2.03;0.52;;;;;;;10.21;88.83;98964.13;7391296;19;20494;-61
2023/12/21 08:55:11;;;;;;;1.67;0.63;;;;;;;10.25;88.51;98965.53;7391389;19;20106;-62
2023/12/21 08:57:39;;;;;;;2.55;0.70;;;;;;;10.18;88.78;98954.69;7396955;19;20015;-63
2023/12/21 09:00:12;;;;;;;4.20;0.50;;;;;;;10.20;89.17;98965.97;7395602;19;20050;-63
2023/12/21 09:02:41;;;;;;;;;;;;;;;10.07;89.50;98944.34;7398939;19;20362;-63
2023/12/21 09:05:12;;;;;;;3.92;0.70;;;;;;;10.00;90.01;98930.94;7398208;19;19926;-63
2023/12/21 09:07:40;;;;;;;3.25;0.70;;;;;;;10.04;90.58;98935.94;7397196;19;20078;-63
2023/12/21 09:10:09;;;;;;;4.70;1.00;;;;;;;10.13;90.26;98924.41;7394789;19;20120;-63
2023/12/21 09:12:37;;;;;;;2.25;0.50;;;;;;;10.11;90.34;98924.56;7396449;19;20014;-63
2023/12/21 09:15:06;;;;;;;3.38;0.50;;;;;;;10.23;89.88;98917.22;7398036;19;20074;-62
2023/12/21 09:17:34;;;;;;;1.33;0.40;;;;;;;10.18;90.12;98908.91;7398152;19;20039;-63
2023/12/21 09:20:02;;;;;;;1.05;0.40;;;;;;;10.16;90.43;98919.66;7394953;19;20032;-63
2023/12/21 09:22:32;;;;;;;1.27;0.45;;;;;;;10.15;90.66;98910.06;7398453;19;20015;-63
2023/12/21 09:25:02;;;;;;;1.80;0.47;;;;;;;10.20;90.74;98899.00;7396078;19;20026;-62
2023/12/21 09:27:32;;;;;;;1.42;0.38;;;;;;;10.17;90.72;98891.38;7397218;19;20014;-62
2023/12/21 09:30:00;;;;;;;2.97;0.40;;;;;;;10.14;90.95;98879.28;7394114;19;20051;-62
2023/12/21 09:32:29;;;;;;;1.20;0.22;;;;;;;10.14;90.96;98878.47;7397693;19;20011;-62
2023/12/21 09:34:57;;;;;;;0.55;0.40;;;;;;;10.14;91.32;98868.69;7396628;19;20015;-62
2023/12/21 09:37:25;;;;;;;3.65;0.20;;;;;;;10.19;91.46;98862.97;7395146;19;20014;-63
2023/12/21 09:39:53;;;;;;;1.52;0.30;;;;;;;10.19;90.89;98849.75;7393540;19;20021;-66
2023/12/21 09:42:22;;;;;;;0.93;0.43;;;;;;;10.23;90.79;98857.19;7395952;19;20058;-66
2023/12/21 09:44:51;;;;;;;0.20;0.20;;;;;;;10.14;91.54;98841.44;7396643;19;20511;-66
2023/12/21 09:47:22;;;;;;;1.42;0.50;;;;;;;10.11;91.44;98844.38;7395910;19;20018;-68
2023/12/21 09:49:54;;;;;;;2.30;0.35;;;;;;;10.17;91.88;98825.25;7393033;19;20018;-68
2023/12/21 09:52:23;;;;;;;1.13;0.40;;;;;;;10.21;91.39;98834.53;7396216;19;20017;-68
2023/12/21 09:54:52;;;;;;;0.60;0.40;;;;;;;10.18;91.57;98816.31;7394566;19;20491;-68
2023/12/21 09:57:21;;;;;;;0.75;0.35;;;;;;;10.30;91.19;98811.59;7396100;19;20337;-68
2023/12/21 09:59:50;;;;;;;1.73;0.30;;;;;;;10.30;90.93;98828.31;7391446;19;20019;-68
2023/12/21 10:02:18;;;;;;;0.50;0.30;;;;;;;10.25;91.28;98798.84;7395712;19;20014;-68
2023/12/21 10:04:46;;;;;;;0.90;0.20;;;;;;;10.27;91.35;98790.78;7395005;19;20086;-68
2023/12/21 10:07:14;;;;;;;0.93;0.28;;;;;;;10.32;91.15;98791.94;7393808;19;20018;-68
2023/12/21 10:09:44;;;;;;;1.48;0.40;;;;;;;10.34;91.11;98789.13;7391375;19;20026;-68
2023/12/21 10:12:12;;;;;;;4.25;0.30;;;;;;;10.41;90.86;98771.63;7394868;19;20081;-68
2023/12/21 10:14:40;;;;;;;2.08;0.28;;;;;;;10.38;90.85;98761.34;7394733;19;20051;-68
2023/12/21 10:17:09;;;;;;;0.38;0.22;;;;;;;10.26;91.10;98763.47;7393452;19;20475;-68
2023/12/21 10:19:44;;;;;;;0.30;0.20;;;;;;;10.39;90.80;98770.97;7392833;19;20026;-68
2023/12/21 10:22:12;;;;;;;;;;;;;;;10.16;91.28;98750.38;7395098;19;20039;-68
2023/12/21 10:24:40;;;;;;;1.27;0.20;;;;;;;10.19;91.78;98751.88;7395070;19;19923;-67
2023/12/21 10:27:13;;;;;;;0.95;0.20;;;;;;;10.27;91.60;98725.47;7394292;19;20052;-69
2023/12/21 10:29:41;;;;;;;0.50;0.30;;;;;;;10.34;91.28;98730.94;7392290;19;20533;-68
2023/12/21 10:32:10;;;;;;;2.53;0.40;;;;;;;10.32;91.47;98727.63;7394796;19;20030;-66
2023/12/21 10:34:38;;;;;;;0.40;0.20;;;;;;;10.28;91.46;98713.91;7392863;19;20018;-69
2023/12/21 10:37:06;;;;;;;1.55;0.30;;;;;;;10.33;91.66;98711.59;7393867;19;20359;-65
2023/12/21 10:39:34;;;;;;;2.25;0.25;;;;;;;10.37;91.49;98697.03;7391740;19;20035;-64
2023/12/21 10:42:02;;;;;;;0.20;0.20;;;;;;;10.33;91.62;98692.25;7392543;19;20018;-65
2023/12/21 10:44:30;;;;;;;1.73;0.20;;;;;;;10.35;91.64;98690.28;7393895;19;20029;-67
2023/12/21 10:47:01;;;;;;;0.85;0.30;;;;;;;10.39;91.54;98673.06;7393417;19;20039;-67
2023/12/21 10:49:31;;;;;;;0.77;0.30;;;;;;;10.37;91.94;98660.00;7392122;19;20085;-66
2023/12/21 10:52:00;;;;;;;1.98;0.32;;;;;;;10.43;91.43;98653.22;7392070;19;20093;-65
2023/12/21 10:54:31;;;;;;;0.60;0.30;;;;;;;10.41;91.37;98653.38;7393305;19;20013;-71
2023/12/21 10:57:00;;;;;;;1.33;0.55;;;;;;;10.37;91.60;98645.94;7391789;19;20021;-68
2023/12/21 10:59:30;;;;;;;0.43;0.30;;;;;;;10.42;91.59;98648.94;7389564;19;20479;-70
2023/12/21 11:01:59;;;;;;;1.33;0.47;;;;;;;10.45;91.64;98654.75;7393215;19;20014;-70
2023/12/21 11:04:28;;;;;;;1.40;0.30;;;;;;;10.52;91.34;98635.53;7393379;19;20108;-70
2023/12/21 11:06:57;;;;;;;1.02;0.22;;;;;;;10.49;91.12;98652.56;7393288;19;20019;-71
2023/12/21 11:09:26;;;;;;;1.17;0.20;;;;;;;10.53;91.30;98634.53;7390764;19;20033;-68
2023/12/21 11:11:57;;;;;;;0.50;0.20;;;;;;;10.54;91.09;98631.75;7392805;19;20023;-68
2023/12/21 11:14:25;;;;;;;2.63;0.70;;;;;;;10.53;90.82;98642.47;7392556;19;20486;-68
2023/12/21 11:16:58;;;;;;;4.28;0.90;;;;;;;10.60;91.34;98640.81;7393140;19;20043;-70
2023/12/21 11:19:34;;;;;;;11.07;4.28;;;;;;;10.64;91.20;98645.63;7387955;19;20023;-69
2023/12/21 11:22:04;;;;;;;11.82;4.70;;;;;;;10.62;91.53;98636.22;7391716;19;20471;-69
2023/12/21 11:24:32;;;;;;;9.18;3.13;;;;;;;10.65;91.52;98644.66;7392727;19;20035;-69
2023/12/21 11:27:01;;;;;;;8.05;2.10;;;;;;;10.71;91.18;98611.38;7392995;19;20464;-69
2023/12/21 11:29:30;;;;;;;7.65;1.70;;;;;;;10.71;91.03;98629.91;7389182;19;20014;-69
2023/12/21 11:32:00;;;;;;;7.15;2.20;;;;;;;10.76;89.86;98610.88;7393282;19;20090;-67
2023/12/21 11:34:41;;;;;;;12.90;4.07;;;;;;;10.92;88.97;98642.66;7393408;19;20022;-69
2023/12/21 11:37:25;;;;;;;12.93;4.50;;;;;;;10.90;88.74;98626.91;7392534;19;20082;-69
2023/12/21 11:39:58;;;;;;;12.95;3.13;;;;;;;10.96;87.82;98617.47;7389986;19;20011;-69
2023/12/21 11:42:36;;;;;;;9.63;2.25;;;;;;;11.01;87.07;98625.75;7391498;19;20353;-68
2023/12/21 11:45:07;;;;;;;9.35;1.90;;;;;;;10.98;87.18;98629.53;7391740;19;20086;-67